createdAt,value
2023-02-07T00:00:29.266Z,37.50
2023-02-07T00:02:59.526Z,36.90
2023-02-07T00:05:30.773Z,29.90
2023-02-07T00:08:01.183Z,30.00
2023-02-07T00:10:31.136Z,34.00
2023-02-07T00:13:01.372Z,37.10
2023-02-07T00:15:31.583Z,37.30
2023-02-07T00:18:01.550Z,34.90
2023-02-07T00:20:31.613Z,36.80
2023-02-07T00:23:01.493Z,38.90
2023-02-07T00:25:31.374Z,38.70
2023-02-07T00:28:01.562Z,36.20
2023-02-07T00:30:31.709Z,31.20
2023-02-07T00:33:01.705Z,29.00
2023-02-07T00:35:31.715Z,33.40
2023-02-07T00:38:04.635Z,29.10
2023-02-07T00:40:36.483Z,30.00
2023-02-07T00:43:06.412Z,30.30
2023-02-07T00:45:36.736Z,36.80
2023-02-07T00:48:07.554Z,37.00
2023-02-07T00:50:37.863Z,45.20
2023-02-07T00:53:08.206Z,50.40
2023-02-07T00:55:39.049Z,50.50
2023-02-07T00:58:09.462Z,56.40
2023-02-07T01:00:39.546Z,53.50
2023-02-07T01:03:10.166Z,59.80
2023-02-07T01:05:40.827Z,67.40
2023-02-07T01:08:10.930Z,64.90
2023-02-07T01:10:42.370Z,64.90
2023-02-07T01:13:14.029Z,49.20
2023-02-07T01:15:47.298Z,52.80
2023-02-07T01:18:18.493Z,50.50
2023-02-07T01:20:48.591Z,50.50
2023-02-07T01:23:19.509Z,50.50
2023-02-07T01:25:49.498Z,47.80
2023-02-07T01:28:19.486Z,46.10
2023-02-07T01:30:49.600Z,50.30
2023-02-07T01:33:19.864Z,56.60
2023-02-07T01:35:49.921Z,52.00
2023-02-07T01:38:19.721Z,46.90
2023-02-07T01:40:49.901Z,49.20
2023-02-07T01:43:32.828Z,52.80
2023-02-07T01:46:22.522Z,46.80
2023-02-07T01:48:54.777Z,46.90
2023-02-07T01:51:26.732Z,44.40
2023-02-07T01:54:01.290Z,44.90
2023-02-07T01:56:32.504Z,50.30
2023-02-07T01:59:06.835Z,57.60
2023-02-07T02:04:22.605Z,47.70
2023-02-07T02:06:52.427Z,54.70
2023-02-07T02:09:21.943Z,55.50
2023-02-07T02:12:16.621Z,51.60
2023-02-07T02:15:03.739Z,55.20
2023-02-07T02:17:50.030Z,62.30
2023-02-07T02:20:54.569Z,49.20
2023-02-07T02:23:36.422Z,53.80
2023-02-07T02:26:45.338Z,46.30
2023-02-07T02:29:52.182Z,40.50
2023-02-07T02:32:56.300Z,43.30
2023-02-07T02:35:35.393Z,39.70
2023-02-07T02:38:15.724Z,40.60
2023-02-07T02:40:55.253Z,35.20
2023-02-07T02:43:35.065Z,40.00
2023-02-07T02:46:09.130Z,36.70
2023-02-07T02:48:40.218Z,27.70
2023-02-07T02:51:09.629Z,30.40
2023-02-07T02:53:39.267Z,30.30
2023-02-07T02:56:45.624Z,33.40
2023-02-07T02:59:41.864Z,30.20
2023-02-07T03:02:22.288Z,27.30
2023-02-07T03:05:03.770Z,25.10
2023-02-07T03:07:48.766Z,27.80
2023-02-07T03:10:30.245Z,28.20
2023-02-07T03:13:07.780Z,30.20
2023-02-07T03:15:53.360Z,28.00
2023-02-07T03:18:27.867Z,28.10
2023-02-07T03:21:03.229Z,26.70
2023-02-07T03:23:34.494Z,27.60
2023-02-07T03:26:07.137Z,31.10
2023-02-07T03:28:37.760Z,31.80
2023-02-07T03:31:11.201Z,30.20
2023-02-07T03:33:41.552Z,26.40
2023-02-07T03:36:16.721Z,25.40
2023-02-07T03:38:46.716Z,26.50
2023-02-07T03:41:24.289Z,24.90
2023-02-07T03:43:55.603Z,28.40
2023-02-07T03:46:25.358Z,29.60
2023-02-07T03:48:55.911Z,30.60
2023-02-07T03:51:25.713Z,29.30
2023-02-07T03:53:55.417Z,24.70
2023-02-07T03:56:25.171Z,24.60
2023-02-07T03:58:54.985Z,24.10
2023-02-07T04:01:24.711Z,31.60
2023-02-07T04:03:54.682Z,32.40
2023-02-07T04:06:24.467Z,35.30
2023-02-07T04:08:53.926Z,33.50
2023-02-07T04:11:23.452Z,40.60
2023-02-07T04:13:52.804Z,39.30
2023-02-07T04:16:23.283Z,38.20
2023-02-07T04:18:52.977Z,37.20
2023-02-07T04:21:22.733Z,43.90
2023-02-07T04:23:52.603Z,40.90
2023-02-07T04:26:22.285Z,39.90
2023-02-07T04:28:51.891Z,41.20
2023-02-07T04:31:21.255Z,38.90
2023-02-07T04:33:50.824Z,36.50
2023-02-07T04:36:20.341Z,36.00
2023-02-07T04:38:50.165Z,31.30
2023-02-07T04:41:19.791Z,31.00
2023-02-07T04:43:49.430Z,33.70
2023-02-07T04:46:18.788Z,30.30
2023-02-07T04:48:48.790Z,37.90
2023-02-07T04:51:18.147Z,35.30
2023-02-07T04:53:48.118Z,33.80
2023-02-07T04:56:17.889Z,35.40
2023-02-07T04:58:48.537Z,31.60
2023-02-07T05:01:18.481Z,33.60
2023-02-07T05:03:48.221Z,32.40
2023-02-07T05:06:18.250Z,33.30
2023-02-07T05:08:47.719Z,36.40
2023-02-07T05:11:18.122Z,53.60
2023-02-07T05:13:47.698Z,65.80
2023-02-07T05:16:17.539Z,101.30
2023-02-07T05:18:47.108Z,63.40
2023-02-07T05:21:17.037Z,52.50
2023-02-07T05:23:46.742Z,52.30
2023-02-07T05:26:16.795Z,49.10
2023-02-07T05:28:46.217Z,53.50
2023-02-07T05:31:15.854Z,57.20
2023-02-07T05:33:45.417Z,55.90
2023-02-07T05:36:15.107Z,52.60
2023-02-07T05:38:44.455Z,46.90
2023-02-07T05:41:13.868Z,45.90
2023-02-07T05:43:43.243Z,45.70
2023-02-07T05:46:12.874Z,50.20
2023-02-07T05:48:42.692Z,60.60
2023-02-07T05:51:12.352Z,63.00
2023-02-07T05:53:41.698Z,65.30
2023-02-07T05:56:11.126Z,67.50
2023-02-07T05:58:40.512Z,64.10
2023-02-07T06:01:10.043Z,60.00
2023-02-07T06:03:39.376Z,59.70
2023-02-07T06:06:09.573Z,55.10
2023-02-07T06:08:39.138Z,46.20
2023-02-07T06:11:08.609Z,42.80
2023-02-07T06:13:39.127Z,45.10
2023-02-07T06:16:10.490Z,40.40
2023-02-07T06:18:40.247Z,38.10
2023-02-07T06:21:10.331Z,42.50
2023-02-07T06:23:40.378Z,40.80
2023-02-07T06:26:10.420Z,46.40
2023-02-07T06:28:40.226Z,53.70
2023-02-07T06:31:10.017Z,52.30
2023-02-07T06:33:40.039Z,60.20
2023-02-07T06:36:10.987Z,56.00
2023-02-07T06:38:40.299Z,52.00
2023-02-07T06:41:10.809Z,54.60
2023-02-07T06:43:40.890Z,53.60
2023-02-07T06:46:10.367Z,55.30
2023-02-07T06:48:39.924Z,45.50
2023-02-07T06:51:10.062Z,48.70
2023-02-07T06:53:39.551Z,50.50
2023-02-07T06:56:09.547Z,53.60
2023-02-07T06:58:39.202Z,57.70
2023-02-07T07:01:08.872Z,59.20
2023-02-07T07:03:38.480Z,52.80
2023-02-07T07:06:08.272Z,45.70
2023-02-07T07:08:38.262Z,42.90
2023-02-07T07:11:08.074Z,41.60
2023-02-07T07:13:38.092Z,41.70
2023-02-07T07:16:09.479Z,43.30
2023-02-07T07:18:41.158Z,41.00
2023-02-07T07:21:12.817Z,39.70
2023-02-07T07:23:42.847Z,36.70
2023-02-07T07:26:15.751Z,50.70
2023-02-07T07:28:46.426Z,44.10
2023-02-07T07:31:16.071Z,77.40
2023-02-07T07:33:46.094Z,52.30
2023-02-07T07:36:16.334Z,62.40
2023-02-07T07:38:47.710Z,57.40
2023-02-07T07:41:18.021Z,58.30
2023-02-07T07:43:47.508Z,51.70
2023-02-07T07:46:17.085Z,58.80
2023-02-07T07:48:47.102Z,44.60
2023-02-07T07:51:16.849Z,46.50
2023-02-07T07:53:46.541Z,44.30
2023-02-07T07:56:15.961Z,38.90
2023-02-07T07:58:45.596Z,50.10
2023-02-07T08:01:15.254Z,75.50
2023-02-07T08:03:45.023Z,90.60
2023-02-07T08:06:17.248Z,67.20
2023-02-07T08:08:46.995Z,61.60
2023-02-07T08:11:16.903Z,62.20
2023-02-07T08:13:46.481Z,64.90
2023-02-07T08:16:17.666Z,66.40
2023-02-07T08:18:47.630Z,60.70
2023-02-07T08:21:17.459Z,58.50
2023-02-07T08:23:47.520Z,59.30
2023-02-07T08:26:18.519Z,44.50
2023-02-07T08:28:49.114Z,44.00
2023-02-07T08:31:19.325Z,52.70
2023-02-07T08:33:49.003Z,40.00
2023-02-07T08:36:19.072Z,41.40
2023-02-07T08:38:48.610Z,42.80
2023-02-07T08:41:18.080Z,40.90
2023-02-07T08:43:47.602Z,39.70
2023-02-07T08:46:17.112Z,42.00
2023-02-07T08:48:47.696Z,43.90
2023-02-07T08:51:17.108Z,41.70
2023-02-07T08:53:46.467Z,39.10
2023-02-07T08:56:15.946Z,42.30
2023-02-07T08:58:52.223Z,37.00
2023-02-07T09:01:24.497Z,46.70
2023-02-07T09:03:57.626Z,40.50
2023-02-07T09:06:28.163Z,45.00
2023-02-07T09:08:58.700Z,50.00
2023-02-07T09:11:28.086Z,43.10
2023-02-07T09:13:57.691Z,39.80
2023-02-07T09:16:27.164Z,54.80
2023-02-07T09:18:57.050Z,42.10
2023-02-07T09:21:26.806Z,42.40
2023-02-07T09:23:56.473Z,42.20
2023-02-07T09:26:26.424Z,40.40
2023-02-07T09:28:57.683Z,40.60
2023-02-07T09:31:28.371Z,44.00
2023-02-07T09:33:59.695Z,38.30
2023-02-07T09:36:35.577Z,40.10
2023-02-07T09:39:09.543Z,38.60
2023-02-07T09:41:45.735Z,40.00
2023-02-07T09:44:25.588Z,42.40
2023-02-07T09:47:00.923Z,39.60
2023-02-07T09:49:37.874Z,35.90
2023-02-07T09:52:12.618Z,44.00
2023-02-07T09:54:44.131Z,41.50
2023-02-07T09:57:18.285Z,38.60
2023-02-07T09:59:53.565Z,35.10
2023-02-07T10:02:30.739Z,43.50
2023-02-07T10:05:02.703Z,35.70
2023-02-07T10:07:32.839Z,38.60
2023-02-07T10:10:03.451Z,34.80
2023-02-07T10:13:08.606Z,33.70
2023-02-07T10:15:56.699Z,34.60
2023-02-07T10:18:47.728Z,34.40
2023-02-07T10:21:27.789Z,35.90
2023-02-07T10:24:11.534Z,36.40
2023-02-07T10:26:48.268Z,37.70
2023-02-07T10:29:30.600Z,41.80
2023-02-07T10:32:03.324Z,40.00
2023-02-07T10:34:41.427Z,28.90
2023-02-07T10:37:20.731Z,35.90
2023-02-07T10:39:57.681Z,44.90
2023-02-07T10:42:29.223Z,33.20
2023-02-07T10:45:02.401Z,50.30
2023-02-07T10:47:36.373Z,43.50
2023-02-07T10:52:44.979Z,44.40
2023-02-07T10:55:17.981Z,42.20
2023-02-07T10:58:02.718Z,39.20
2023-02-07T11:00:38.743Z,39.10
2023-02-07T11:03:13.477Z,40.70
2023-02-07T11:05:55.029Z,41.60
2023-02-07T11:08:27.788Z,35.80
2023-02-07T11:11:16.837Z,38.00
2023-02-07T11:13:51.250Z,39.60
2023-02-07T11:16:23.227Z,40.00
2023-02-07T11:19:01.019Z,40.40
2023-02-07T11:21:38.747Z,38.80
2023-02-07T11:24:14.354Z,45.60
2023-02-07T11:26:56.004Z,45.10
2023-02-07T11:29:29.104Z,38.80
2023-02-07T11:32:00.905Z,45.40
2023-02-07T11:34:40.395Z,39.60
2023-02-07T11:37:20.023Z,42.40
2023-02-07T11:39:51.042Z,43.10
2023-02-07T11:42:22.320Z,44.40
2023-02-07T11:44:52.662Z,46.90
2023-02-07T11:47:25.563Z,41.60
2023-02-07T11:50:01.084Z,44.10
2023-02-07T11:52:33.730Z,43.20
2023-02-07T11:55:07.563Z,43.20
2023-02-07T11:57:39.084Z,48.80
2023-02-07T12:00:20.407Z,46.70
2023-02-07T12:02:59.409Z,49.30
2023-02-07T12:05:32.116Z,49.20
2023-02-07T12:08:06.033Z,45.80
2023-02-07T12:10:38.588Z,42.70
2023-02-07T12:13:13.205Z,41.30
2023-02-07T12:15:45.837Z,53.60
2023-02-07T12:18:22.396Z,44.00
2023-02-07T12:20:58.507Z,43.50
2023-02-07T12:23:44.718Z,39.70
2023-02-07T12:26:23.447Z,51.00
2023-02-07T12:29:13.196Z,45.60
2023-02-07T12:31:50.966Z,51.30
2023-02-07T12:34:29.919Z,49.90
2023-02-07T12:37:11.307Z,54.40
2023-02-07T12:39:49.110Z,44.30
2023-02-07T12:42:31.027Z,53.60
2023-02-07T12:45:06.111Z,49.30
2023-02-07T12:47:44.940Z,54.10
2023-02-07T12:50:23.755Z,49.60
2023-02-07T12:53:07.050Z,44.30
2023-02-07T12:55:47.619Z,43.10
2023-02-07T12:58:29.028Z,48.70
2023-02-07T13:01:06.380Z,44.10
2023-02-07T13:04:04.825Z,47.20
2023-02-07T13:06:45.047Z,48.10
2023-02-07T13:09:25.525Z,40.70
2023-02-07T13:12:07.660Z,41.70
2023-02-07T13:14:53.181Z,47.10
2023-02-07T13:17:38.493Z,50.40
2023-02-07T13:20:22.951Z,45.00
2023-02-07T13:22:57.726Z,44.80
2023-02-07T13:25:31.089Z,44.20
2023-02-07T13:28:05.407Z,49.10
2023-02-07T13:30:36.717Z,52.10
2023-02-07T13:33:26.486Z,48.70
2023-02-07T13:36:01.698Z,48.00
2023-02-07T13:38:45.934Z,44.70
2023-02-07T13:41:19.752Z,51.20
2023-02-07T13:44:09.284Z,48.80
2023-02-07T13:46:58.984Z,47.90
2023-02-07T13:49:41.365Z,50.60
2023-02-07T13:52:19.103Z,46.00
2023-02-07T13:54:57.043Z,53.30
2023-02-07T13:58:00.136Z,51.60
2023-02-07T14:00:32.942Z,44.60
2023-02-07T14:03:04.410Z,39.30
2023-02-07T14:05:39.339Z,46.30
2023-02-07T14:08:24.466Z,41.60
2023-02-07T14:10:55.451Z,46.30
2023-02-07T14:13:36.305Z,47.60
2023-02-07T14:16:12.777Z,45.20
2023-02-07T14:18:50.091Z,44.70
2023-02-07T14:21:44.930Z,44.70
2023-02-07T14:24:32.873Z,46.50
2023-02-07T14:27:05.962Z,45.20
2023-02-07T14:30:02.927Z,32.90
2023-02-07T14:32:46.421Z,43.50
2023-02-07T14:35:35.889Z,42.70
2023-02-07T14:38:28.448Z,44.10
2023-02-07T14:41:11.181Z,50.20
2023-02-07T14:44:07.424Z,45.40
2023-02-07T14:46:42.031Z,44.30
2023-02-07T14:49:19.131Z,46.40
2023-02-07T14:51:55.700Z,44.00
2023-02-07T14:54:38.392Z,46.90
2023-02-07T14:57:20.099Z,47.10
2023-02-07T15:00:02.707Z,46.00
2023-02-07T15:02:37.749Z,48.90
2023-02-07T15:05:21.905Z,49.40
2023-02-07T15:08:10.055Z,46.70
2023-02-07T15:10:44.798Z,44.80
2023-02-07T15:13:27.239Z,42.30
2023-02-07T15:16:01.826Z,48.80
2023-02-07T15:18:33.607Z,47.20
2023-02-07T15:21:03.294Z,46.80
2023-02-07T15:23:36.535Z,45.70
2023-02-07T15:26:08.901Z,40.30
2023-02-07T15:28:38.741Z,41.70
2023-02-07T15:31:14.812Z,43.20
2023-02-07T15:33:53.400Z,50.70
2023-02-07T15:36:33.387Z,45.90
2023-02-07T15:39:06.240Z,47.30
2023-02-07T15:41:36.195Z,40.60
2023-02-07T15:44:08.277Z,43.10
2023-02-07T15:46:49.042Z,40.70
2023-02-07T15:49:33.560Z,42.60
2023-02-07T15:52:08.944Z,36.30
2023-02-07T15:54:47.298Z,38.60
2023-02-07T15:57:25.593Z,43.00
2023-02-07T16:00:03.033Z,50.80
2023-02-07T16:02:47.102Z,48.30
2023-02-07T16:05:23.054Z,53.20
2023-02-07T16:07:53.790Z,52.20
2023-02-07T16:10:35.101Z,55.70
2023-02-07T16:13:18.253Z,40.40
2023-02-07T16:15:58.014Z,45.70
2023-02-07T16:18:38.600Z,42.70
2023-02-07T16:21:12.943Z,55.30
2023-02-07T16:23:43.157Z,65.60
2023-02-07T16:26:13.198Z,76.90
2023-02-07T16:28:42.938Z,56.30
2023-02-07T16:31:12.603Z,65.90
2023-02-07T16:33:42.116Z,112.30
2023-02-07T16:36:15.075Z,59.40
2023-02-07T16:38:48.061Z,60.60
2023-02-07T16:41:27.807Z,52.60
2023-02-07T16:44:00.006Z,47.70
2023-02-07T16:46:33.722Z,52.60
2023-02-07T16:49:08.452Z,42.70
2023-02-07T16:51:43.153Z,43.10
2023-02-07T16:54:13.638Z,42.30
2023-02-07T16:56:44.460Z,49.80
2023-02-07T16:59:17.797Z,51.20
2023-02-07T17:01:47.950Z,46.30
2023-02-07T17:04:17.431Z,47.30
2023-02-07T17:06:47.664Z,43.50
2023-02-07T17:09:21.238Z,46.20
2023-02-07T17:11:54.703Z,47.40
2023-02-07T17:14:24.632Z,46.70
2023-02-07T17:16:54.386Z,49.70
2023-02-07T17:19:26.678Z,43.20
2023-02-07T17:21:57.763Z,46.90
2023-02-07T17:24:27.244Z,42.90
2023-02-07T17:26:58.026Z,46.60
2023-02-07T17:29:30.261Z,62.70
2023-02-07T17:32:00.174Z,43.80
2023-02-07T17:34:29.746Z,56.50
2023-02-07T17:37:04.965Z,189.70
2023-02-07T17:39:35.306Z,239.30
2023-02-07T17:42:05.234Z,80.30
2023-02-07T17:44:35.091Z,98.90
2023-02-07T17:47:05.908Z,90.70
2023-02-07T17:49:38.190Z,68.10
2023-02-07T17:52:15.193Z,55.90
2023-02-07T17:54:45.515Z,73.30
2023-02-07T17:57:18.721Z,45.50
2023-02-07T17:59:50.429Z,42.80
2023-02-07T18:02:21.658Z,45.70
2023-02-07T18:04:51.714Z,48.70
2023-02-07T18:07:21.337Z,62.30
2023-02-07T18:09:50.989Z,56.30
2023-02-07T18:12:20.679Z,49.30
2023-02-07T18:14:51.774Z,56.80
2023-02-07T18:17:23.438Z,66.30
2023-02-07T18:20:00.704Z,61.60
2023-02-07T18:22:30.856Z,57.20
2023-02-07T18:25:00.999Z,97.20
2023-02-07T18:27:33.528Z,120.30
2023-02-07T18:30:04.478Z,75.10
2023-02-07T18:32:39.999Z,50.10
2023-02-07T18:35:10.968Z,54.60
2023-02-07T18:37:42.449Z,54.10
2023-02-07T18:40:15.279Z,64.20
2023-02-07T18:42:45.828Z,56.90
2023-02-07T18:45:15.567Z,54.40
2023-02-07T18:47:45.240Z,47.80
2023-02-07T18:50:14.857Z,62.70
2023-02-07T18:52:44.358Z,63.80
2023-02-07T18:55:16.741Z,89.80
2023-02-07T18:57:46.722Z,77.80
2023-02-07T19:00:17.834Z,61.00
2023-02-07T19:02:51.084Z,80.60
2023-02-07T19:05:22.681Z,85.50
2023-02-07T19:07:54.061Z,70.00
2023-02-07T19:10:26.531Z,62.50
2023-02-07T19:13:01.682Z,80.30
2023-02-07T19:15:31.742Z,83.10
2023-02-07T19:18:05.159Z,60.70
2023-02-07T19:20:37.135Z,61.60
2023-02-07T19:23:10.089Z,49.40
2023-02-07T19:25:51.728Z,59.00
2023-02-07T19:28:26.637Z,54.70
2023-02-07T19:33:29.913Z,46.20
2023-02-07T19:36:05.919Z,43.70
2023-02-07T19:38:35.314Z,46.60
2023-02-07T19:41:08.165Z,43.80
2023-02-07T19:43:39.659Z,44.10
2023-02-07T19:46:09.789Z,48.50
2023-02-07T19:48:40.242Z,52.10
2023-02-07T19:51:17.734Z,50.50
2023-02-07T19:53:50.993Z,50.90
2023-02-07T19:56:25.604Z,45.30
2023-02-07T19:58:58.282Z,46.40
2023-02-07T20:01:29.360Z,52.40
2023-02-07T20:04:09.479Z,48.20
2023-02-07T20:06:41.833Z,47.20
2023-02-07T20:09:13.598Z,65.20
2023-02-07T20:11:45.235Z,52.90
2023-02-07T20:14:18.856Z,47.90
2023-02-07T20:16:50.496Z,50.20
2023-02-07T20:19:20.461Z,119.00
2023-02-07T20:21:51.791Z,90.00
2023-02-07T20:24:22.885Z,100.10
2023-02-07T20:26:55.795Z,115.20
2023-02-07T20:29:27.237Z,47.20
2023-02-07T20:31:59.763Z,47.80
2023-02-07T20:34:31.415Z,45.20
2023-02-07T20:37:02.737Z,46.80
2023-02-07T20:39:38.665Z,49.60
2023-02-07T20:42:10.641Z,73.60
2023-02-07T20:44:40.177Z,66.80
2023-02-07T20:47:16.377Z,57.60
2023-02-07T20:49:48.323Z,64.10
2023-02-07T20:52:19.789Z,57.60
2023-02-07T20:54:52.497Z,66.20
2023-02-07T20:57:24.695Z,55.00
2023-02-07T20:59:54.848Z,50.90
2023-02-07T21:02:25.990Z,56.60
2023-02-07T21:04:57.898Z,52.70
2023-02-07T21:07:32.844Z,59.20
2023-02-07T21:10:02.516Z,53.70
2023-02-07T21:12:32.328Z,54.90
2023-02-07T21:15:02.335Z,54.10
2023-02-07T21:17:32.206Z,57.80
2023-02-07T21:20:01.713Z,62.00
2023-02-07T21:22:31.211Z,61.00
2023-02-07T21:25:00.872Z,70.00
2023-02-07T21:27:30.830Z,60.50
2023-02-07T21:30:00.311Z,75.20
2023-02-07T21:32:30.651Z,66.40
2023-02-07T21:35:00.179Z,65.50
2023-02-07T21:37:30.561Z,64.70
2023-02-07T21:40:00.138Z,58.60
2023-02-07T21:42:29.721Z,54.70
2023-02-07T21:44:59.581Z,61.90
2023-02-07T21:47:29.204Z,55.70
2023-02-07T21:50:02.699Z,63.30
2023-02-07T21:52:40.331Z,63.30
2023-02-07T21:55:17.710Z,59.70
2023-02-07T21:57:48.004Z,63.80
2023-02-07T22:00:18.152Z,57.40
2023-02-07T22:02:50.171Z,56.70
2023-02-07T22:05:22.878Z,54.10
2023-02-07T22:07:52.145Z,54.60
2023-02-07T22:10:22.052Z,63.90
2023-02-07T22:12:51.654Z,56.30
2023-02-07T22:15:21.404Z,52.10
2023-02-07T22:17:50.979Z,55.90
2023-02-07T22:20:20.646Z,57.40
2023-02-07T22:22:49.896Z,63.50
2023-02-07T22:25:19.366Z,56.10
2023-02-07T22:27:49.153Z,54.00
2023-02-07T22:30:28.066Z,54.20
2023-02-07T22:32:57.513Z,56.00
2023-02-07T22:35:26.920Z,54.60
2023-02-07T22:37:56.371Z,87.80
2023-02-07T22:40:25.838Z,144.50
2023-02-07T22:42:55.411Z,88.70
2023-02-07T22:45:24.841Z,120.40
2023-02-07T22:47:54.237Z,120.60
2023-02-07T22:50:23.546Z,79.00
2023-02-07T22:52:52.859Z,63.10
2023-02-07T22:55:22.258Z,99.70
2023-02-07T22:57:52.081Z,80.20
2023-02-07T23:00:21.750Z,51.00
2023-02-07T23:02:51.569Z,52.00
2023-02-07T23:05:20.929Z,51.00
2023-02-07T23:07:50.241Z,60.80
2023-02-07T23:10:20.242Z,54.60
2023-02-07T23:12:49.654Z,52.60
2023-02-07T23:15:38.963Z,53.20
2023-02-07T23:18:10.211Z,46.50
2023-02-07T23:20:42.262Z,43.80
2023-02-07T23:23:12.120Z,51.50
2023-02-07T23:25:44.700Z,45.00
2023-02-07T23:28:14.981Z,46.80
2023-02-07T23:30:44.569Z,45.40
2023-02-07T23:33:14.426Z,49.70
2023-02-07T23:35:44.184Z,49.20
2023-02-07T23:38:13.551Z,48.80
2023-02-07T23:40:43.328Z,54.50
2023-02-07T23:43:13.001Z,52.70
2023-02-07T23:45:42.359Z,53.40
2023-02-07T23:48:11.855Z,49.80
2023-02-07T23:50:41.529Z,48.60
2023-02-07T23:53:11.452Z,52.10
2023-02-07T23:55:45.294Z,51.70
2023-02-07T23:58:14.773Z,45.20
